Time;durP1;ratioP1;P1;durP2;ratioP2;P2;SDS_P1;SDS_P2;PMS_P1;PMS_P2;Temp;Humidity;BMP_temperature;BMP_pressure;BME280_temperature;BME280_humidity;BME280_pressure;Samples;Min_cycle;Max_cycle;Signal;HPM_P1;HPM_P2
2023/12/22 00:00:27;;;;;;;24.70;2.65;;;7.90;99.90;;;;;;5031863;28;20490;-53
2023/12/22 00:02:53;;;;;;;19.73;2.70;;;7.90;99.90;;;;;;5031705;28;20091;-53
2023/12/22 00:05:19;;;;;;;20.05;2.38;;;7.90;99.90;;;;;;5031144;28;20167;-53
2023/12/22 00:07:44;;;;;;;16.00;2.38;;;7.90;99.90;;;;;;5032022;28;20037;-52
2023/12/22 00:10:10;;;;;;;17.58;2.55;;;7.90;99.90;;;;;;5031801;28;20045;-56
2023/12/22 00:12:38;;;;;;;18.50;3.15;;;7.90;99.90;;;;;;5031635;28;20038;-55
2023/12/22 00:15:04;;;;;;;18.02;2.67;;;7.80;99.90;;;;;;5032075;28;20048;-53
2023/12/22 00:17:30;;;;;;;14.05;2.25;;;7.80;99.90;;;;;;5031524;28;20044;-54
2023/12/22 00:19:58;;;;;;;15.48;2.08;;;7.80;99.90;;;;;;5030951;28;20385;-53
2023/12/22 00:22:25;;;;;;;13.60;1.98;;;7.80;99.90;;;;;;5031278;28;20038;-54
2023/12/22 00:24:51;;;;;;;14.80;2.70;;;7.80;99.90;;;;;;5031297;28;20172;-53
2023/12/22 00:27:17;;;;;;;16.92;2.38;;;8.20;99.90;;;;;;5030624;28;20187;-52
2023/12/22 00:29:42;;;;;;;17.30;2.25;;;7.70;99.90;;;;;;5030868;28;20041;-55
2023/12/22 00:32:09;;;;;;;16.33;2.30;;;7.70;99.90;;;;;;5031735;28;20034;-51
2023/12/22 00:34:35;;;;;;;19.35;2.58;;;7.70;99.90;;;;;;5030062;28;20037;-53
2023/12/22 00:37:01;;;;;;;15.07;2.70;;;7.70;99.90;;;;;;5031939;28;20033;-52
2023/12/22 00:39:27;;;;;;;24.63;4.40;;;7.70;99.90;;;;;;5027921;28;20052;-54
2023/12/22 00:41:53;;;;;;;18.75;2.40;;;7.70;99.90;;;;;;5030457;28;20450;-55
2023/12/22 00:44:18;;;;;;;19.98;2.45;;;7.70;99.90;;;;;;5031017;28;20095;-55
2023/12/22 00:46:44;;;;;;;23.30;3.30;;;7.70;99.90;;;;;;5029973;28;20061;-51
2023/12/22 00:49:10;;;;;;;14.57;2.72;;;7.90;99.90;;;;;;5030923;28;20049;-54
2023/12/22 00:51:35;;;;;;;13.13;2.40;;;8.20;99.90;;;;;;5031502;28;20107;-51
2023/12/22 00:54:01;;;;;;;18.23;2.47;;;7.80;99.90;;;;;;5031026;28;20072;-54
2023/12/22 00:56:27;;;;;;;19.98;2.33;;;7.80;99.90;;;;;;5031001;28;20037;-54
2023/12/22 00:58:53;;;;;;;16.30;2.70;;;7.70;99.90;;;;;;5029003;28;20048;-54
2023/12/22 01:01:19;;;;;;;21.75;2.03;;;8.00;99.90;;;;;;5030661;28;20120;-53
2023/12/22 01:03:44;;;;;;;14.48;2.40;;;7.80;99.90;;;;;;5031183;28;20603;-53
2023/12/22 01:06:10;;;;;;;15.38;2.30;;;7.80;99.90;;;;;;5030515;28;20520;-51
2023/12/22 01:08:38;;;;;;;17.60;2.28;;;7.80;99.90;;;;;;5030516;28;20497;-54
2023/12/22 01:11:03;;;;;;;18.98;2.42;;;7.80;99.90;;;;;;5030252;28;20041;-54
2023/12/22 01:13:29;;;;;;;14.68;2.17;;;7.90;99.90;;;;;;5027783;28;20056;-52
2023/12/22 01:15:54;;;;;;;21.00;2.60;;;7.80;99.90;;;;;;5030402;28;20052;-54
2023/12/22 01:18:20;;;;;;;15.77;2.40;;;7.80;99.90;;;;;;5031213;28;20133;-54
2023/12/22 01:20:46;;;;;;;10.45;2.33;;;7.80;99.90;;;;;;5031018;28;20127;-52
2023/12/22 01:23:12;;;;;;;16.33;2.25;;;7.80;99.90;;;;;;5029977;28;20076;-53
2023/12/22 01:25:37;;;;;;;18.10;2.22;;;8.40;99.90;;;;;;5027712;28;20033;-53
2023/12/22 01:28:03;;;;;;;16.75;2.40;;;7.80;99.90;;;;;;5030430;28;20046;-54
2023/12/22 01:30:29;;;;;;;13.23;2.08;;;7.90;99.90;;;;;;5033883;28;20097;-53
2023/12/22 01:32:55;;;;;;;16.85;1.77;;;7.90;99.90;;;;;;5034636;28;20091;-53
2023/12/22 01:35:20;;;;;;;19.10;2.45;;;7.90;99.90;;;;;;5033365;28;20038;-53
2023/12/22 01:37:47;;;;;;;11.25;2.38;;;7.80;99.90;;;;;;5015522;28;20552;-50
2023/12/22 01:40:13;;;;;;;13.10;2.47;;;7.80;99.90;;;;;;5034947;28;20404;-53
2023/12/22 01:42:40;;;;;;;15.60;2.00;;;7.70;99.90;;;;;;5033298;28;20053;-56
2023/12/22 01:45:06;;;;;;;21.98;3.13;;;7.70;99.90;;;;;;5034108;28;20567;-54
2023/12/22 01:47:32;;;;;;;17.48;2.42;;;7.70;99.90;;;;;;5033875;28;20081;-54
2023/12/22 01:49:58;;;;;;;18.48;2.72;;;7.60;99.90;;;;;;5016494;28;20044;-52
2023/12/22 01:52:25;;;;;;;17.23;3.15;;;7.60;99.90;;;;;;5034787;28;20052;-51
2023/12/22 01:54:51;;;;;;;16.20;2.25;;;7.60;99.90;;;;;;5034284;28;20384;-54
2023/12/22 01:57:18;;;;;;;19.27;2.70;;;7.60;99.90;;;;;;5034737;28;20431;-52
2023/12/22 01:59:46;;;;;;;12.23;1.80;;;7.50;99.90;;;;;;5034487;28;20080;-53
2023/12/22 02:02:12;;;;;;;17.42;2.83;;;7.60;99.90;;;;;;5033518;28;20077;-55
2023/12/22 02:04:37;;;;;;;14.63;2.42;;;7.40;99.90;;;;;;5034147;28;20077;-52
2023/12/22 02:07:03;;;;;;;18.20;2.08;;;7.40;99.90;;;;;;5034432;28;20119;-51
2023/12/22 02:09:29;;;;;;;13.30;2.00;;;7.70;99.90;;;;;;5031892;28;20076;-53
2023/12/22 02:11:55;;;;;;;8.63;1.58;;;7.40;99.90;;;;;;5032592;28;20067;-55
2023/12/22 02:14:21;;;;;;;16.23;1.95;;;7.60;99.90;;;;;;5034210;28;20029;-53
2023/12/22 02:16:54;;;;;;;12.13;1.48;;;7.20;99.90;;;;;;5033715;28;20049;-52
2023/12/22 02:19:29;;;;;;;15.95;1.35;;;7.10;99.90;;;;;;5033413;28;20477;-53
2023/12/22 02:22:04;;;;;;;;;;;7.20;99.90;;;;;;5032844;28;20521;-52
2023/12/22 02:24:30;;;;;;;12.38;1.90;;;7.20;99.90;;;;;;5034012;28;20272;-51
2023/12/22 02:27:05;;;;;;;9.25;1.50;;;7.30;99.90;;;;;;5034089;28;20108;-52
2023/12/22 02:29:39;;;;;;;8.50;1.10;;;7.00;99.90;;;;;;5034136;28;20084;-53
2023/12/22 02:32:09;;;;;;;6.97;1.55;;;6.40;99.90;;;;;;5034030;28;20574;-53
2023/12/22 02:34:37;;;;;;;5.03;0.77;;;6.10;99.90;;;;;;5030927;28;20048;-55
2023/12/22 02:37:08;;;;;;;4.18;0.95;;;6.00;99.90;;;;;;5029812;28;20121;-53
2023/12/22 02:39:35;;;;;;;6.13;0.93;;;5.90;99.90;;;;;;5033449;28;20512;-52
2023/12/22 02:42:02;;;;;;;4.70;1.10;;;5.80;99.90;;;;;;5032887;28;20091;-52
2023/12/22 02:44:28;;;;;;;5.18;0.80;;;5.50;99.90;;;;;;5033663;28;20049;-56
2023/12/22 02:46:54;;;;;;;9.18;0.95;;;5.50;99.90;;;;;;5033490;28;20065;-53
2023/12/22 02:49:19;;;;;;;5.57;0.60;;;6.60;99.90;;;;;;5033529;28;20535;-50
2023/12/22 02:51:45;;;;;;;9.57;1.13;;;5.80;99.90;;;;;;5033513;28;20441;-53
2023/12/22 02:54:11;;;;;;;6.82;0.98;;;5.80;99.90;;;;;;5030757;28;20117;-53
2023/12/22 02:56:36;;;;;;;8.93;1.45;;;5.70;99.90;;;;;;5032204;28;20068;-53
2023/12/22 02:59:02;;;;;;;10.43;1.20;;;5.80;99.90;;;;;;5031842;28;20053;-52
2023/12/22 03:01:28;;;;;;;7.75;1.05;;;6.10;99.90;;;;;;5031840;28;20045;-55
2023/12/22 03:03:53;;;;;;;10.82;1.83;;;6.00;99.90;;;;;;5032816;28;20124;-53
2023/12/22 03:06:19;;;;;;;9.50;1.95;;;6.20;99.90;;;;;;5032853;28;20037;-53
2023/12/22 03:08:44;;;;;;;10.98;1.55;;;6.10;99.90;;;;;;5033270;28;20052;-54
2023/12/22 03:11:10;;;;;;;10.95;2.05;;;6.00;99.90;;;;;;5032546;28;20092;-54
2023/12/22 03:13:36;;;;;;;15.30;1.60;;;5.80;99.90;;;;;;5048162;28;20037;-54
2023/12/22 03:16:01;;;;;;;10.85;1.58;;;5.90;99.90;;;;;;5033094;28;20120;-54
2023/12/22 03:18:27;;;;;;;14.50;1.45;;;5.90;99.90;;;;;;5032691;28;20516;-54
2023/12/22 03:20:53;;;;;;;9.48;1.13;;;5.60;99.90;;;;;;5033041;28;20044;-54
2023/12/22 03:23:18;;;;;;;5.75;0.70;;;5.70;99.90;;;;;;5032802;28;20037;-49
2023/12/22 03:25:44;;;;;;;7.80;1.80;;;5.80;99.90;;;;;;5032653;28;20048;-53
2023/12/22 03:28:10;;;;;;;7.28;0.88;;;5.60;99.90;;;;;;5032256;28;20049;-52
2023/12/22 03:30:37;;;;;;;12.82;1.17;;;6.00;99.90;;;;;;5030049;28;20034;-52
2023/12/22 03:33:03;;;;;;;6.93;0.98;;;5.70;99.90;;;;;;5032726;28;20453;-51
2023/12/22 03:35:29;;;;;;;8.68;1.30;;;5.50;99.90;;;;;;5032551;28;20064;-53
2023/12/22 03:37:54;;;;;;;6.13;0.95;;;5.60;99.90;;;;;;5032604;28;20044;-55
2023/12/22 03:40:20;;;;;;;3.80;0.88;;;5.80;99.90;;;;;;5029009;28;20037;-54
2023/12/22 03:42:46;;;;;;;7.15;0.93;;;5.80;99.90;;;;;;5031298;28;20041;-53
2023/12/22 03:45:11;;;;;;;6.15;0.77;;;5.80;99.90;;;;;;5032278;28;20041;-53
2023/12/22 03:47:37;;;;;;;15.55;1.60;;;5.80;99.90;;;;;;5032098;28;20417;-52
2023/12/22 03:50:03;;;;;;;8.38;1.20;;;6.10;99.90;;;;;;5029931;28;20077;-54
2023/12/22 03:52:28;;;;;;;10.57;1.20;;;6.00;99.90;;;;;;5031483;28;20026;-49
2023/12/22 03:54:54;;;;;;;11.07;1.35;;;6.20;99.90;;;;;;5029702;28;20124;-50
2023/12/22 03:57:20;;;;;;;12.88;2.13;;;6.40;99.90;;;;;;5030825;28;20072;-55
2023/12/22 03:59:45;;;;;;;15.48;1.80;;;6.80;99.90;;;;;;5032283;28;20041;-51
2023/12/22 04:02:11;;;;;;;19.95;2.58;;;6.40;99.90;;;;;;5031551;28;20045;-54
2023/12/22 04:04:40;;;;;;;10.15;1.58;;;6.40;99.90;;;;;;5031677;28;20040;-52
2023/12/22 04:07:05;;;;;;;20.60;2.08;;;6.50;99.90;;;;;;5047336;28;20425;-50
2023/12/22 04:09:31;;;;;;;16.45;2.58;;;6.50;99.90;;;;;;5032035;28;20075;-51
2023/12/22 04:11:57;;;;;;;19.20;2.35;;;7.00;99.90;;;;;;5029364;28;20045;-54
2023/12/22 04:14:22;;;;;;;23.08;2.67;;;6.70;99.90;;;;;;5031639;28;20210;-53
2023/12/22 04:16:48;;;;;;;12.05;1.98;;;6.80;99.90;;;;;;5031865;28;20531;-52
2023/12/22 04:19:14;;;;;;;18.85;3.03;;;6.90;99.90;;;;;;5031349;28;20088;-53
2023/12/22 04:21:39;;;;;;;29.50;2.78;;;6.90;99.90;;;;;;5031705;28;20080;-52
2023/12/22 04:24:05;;;;;;;22.15;2.85;;;6.90;99.90;;;;;;5026465;28;20489;-52
2023/12/22 04:26:31;;;;;;;16.95;1.83;;;7.00;99.90;;;;;;5030412;28;20033;-54
2023/12/22 04:28:57;;;;;;;16.90;2.40;;;7.00;99.90;;;;;;5046069;28;20052;-52
2023/12/22 04:31:23;;;;;;;19.30;2.35;;;7.20;99.90;;;;;;5031352;28;20129;-49
2023/12/22 04:33:48;;;;;;;21.25;2.72;;;7.50;99.90;;;;;;5031344;28;20037;-52
2023/12/22 04:36:14;;;;;;;20.42;2.30;;;7.30;99.90;;;;;;5031830;28;20422;-50
2023/12/22 04:38:41;;;;;;;20.02;2.72;;;7.30;99.90;;;;;;5030376;28;20377;-55
2023/12/22 04:41:06;;;;;;;11.70;2.40;;;7.20;99.90;;;;;;5030919;28;20098;-50
2023/12/22 04:43:32;;;;;;;14.50;2.78;;;7.40;99.90;;;;;;5029954;28;20049;-52
2023/12/22 04:45:58;;;;;;;16.40;2.38;;;7.30;99.90;;;;;;5031452;28;20429;-54
2023/12/22 04:48:23;;;;;;;16.35;2.20;;;7.20;99.90;;;;;;5029735;28;20056;-52
2023/12/22 04:50:49;;;;;;;12.40;1.77;;;7.30;99.90;;;;;;5030834;28;20033;-54
2023/12/22 04:53:14;;;;;;;18.65;3.25;;;7.20;99.90;;;;;;5030513;28;20033;-55
2023/12/22 04:55:40;;;;;;;15.68;4.20;;;7.40;99.90;;;;;;5030855;28;20485;-52
2023/12/22 04:58:06;;;;;;;11.23;1.88;;;7.30;99.90;;;;;;5030965;28;20033;-52
2023/12/22 05:00:31;;;;;;;16.08;2.72;;;7.20;99.90;;;;;;5030698;28;20047;-55
2023/12/22 05:02:57;;;;;;;19.80;2.72;;;7.50;99.90;;;;;;5030954;28;20075;-51
2023/12/22 05:05:23;;;;;;;20.08;2.83;;;7.30;99.90;;;;;;5029164;28;20037;-48
2023/12/22 05:07:49;;;;;;;16.42;1.92;;;7.30;99.90;;;;;;5029670;28;20048;-52
2023/12/22 05:10:15;;;;;;;13.00;1.85;;;7.30;99.90;;;;;;5026770;28;20041;-54
2023/12/22 05:12:40;;;;;;;14.20;1.83;;;7.30;99.90;;;;;;5030730;28;20048;-55
2023/12/22 05:15:06;;;;;;;14.18;2.75;;;7.40;99.90;;;;;;5029118;28;20137;-53
2023/12/22 05:17:32;;;;;;;20.52;2.15;;;7.40;99.90;;;;;;5029207;28;20040;-53
2023/12/22 05:19:58;;;;;;;15.20;2.08;;;7.50;99.90;;;;;;5029303;28;20034;-52
2023/12/22 05:22:24;;;;;;;18.33;3.15;;;7.50;99.90;;;;;;5030912;28;20112;-55
2023/12/22 05:24:50;;;;;;;12.88;2.60;;;7.50;99.90;;;;;;5028372;28;20079;-53
2023/12/22 05:27:15;;;;;;;20.98;2.25;;;7.50;99.90;;;;;;5028822;28;20041;-53
2023/12/22 05:29:41;;;;;;;23.23;2.65;;;7.50;99.90;;;;;;5030785;28;20045;-50
2023/12/22 05:32:07;;;;;;;13.82;2.10;;;7.60;99.90;;;;;;5029579;28;20041;-54
2023/12/22 05:34:32;;;;;;;19.98;2.55;;;7.70;99.90;;;;;;5029517;28;20091;-53
2023/12/22 05:36:58;;;;;;;18.42;2.58;;;7.60;99.90;;;;;;5029222;28;20439;-52
2023/12/22 05:39:24;;;;;;;24.17;3.10;;;7.60;99.90;;;;;;5028574;28;20168;-55
2023/12/22 05:41:49;;;;;;;26.30;3.63;;;7.60;99.90;;;;;;5030587;28;20033;-51
2023/12/22 05:44:15;;;;;;;20.73;2.85;;;7.60;99.90;;;;;;5030427;28;20041;-53
2023/12/22 05:46:41;;;;;;;16.98;2.13;;;8.00;99.90;;;;;;5030529;28;20072;-49
2023/12/22 05:49:06;;;;;;;15.02;2.50;;;7.70;99.90;;;;;;5030318;28;20183;-53
2023/12/22 05:51:39;;;;;;;19.77;3.00;;;7.70;99.90;;;;;;5030792;28;20049;-52
2023/12/22 05:54:05;;;;;;;16.95;3.08;;;7.70;99.90;;;;;;5027674;28;20041;-53
2023/12/22 05:56:32;;;;;;;16.55;2.53;;;7.70;99.90;;;;;;5029280;28;20481;-53
2023/12/22 05:58:58;;;;;;;21.17;2.35;;;7.70;99.90;;;;;;5029971;28;20623;-55
2023/12/22 06:01:23;;;;;;;17.95;2.30;;;7.60;99.90;;;;;;5029385;28;20116;-53
2023/12/22 06:03:49;;;;;;;20.77;2.63;;;7.60;99.90;;;;;;5030315;28;20492;-52
2023/12/22 06:06:15;;;;;;;21.83;2.35;;;7.60;99.90;;;;;;5030500;28;20059;-53
2023/12/22 06:08:40;;;;;;;17.23;2.40;;;7.60;99.90;;;;;;5030753;28;20041;-53
2023/12/22 06:11:06;;;;;;;18.33;3.00;;;7.60;99.90;;;;;;5030041;28;20076;-51
2023/12/22 06:13:32;;;;;;;22.38;3.53;;;7.90;99.90;;;;;;5029027;28;20428;-51
2023/12/22 06:15:58;;;;;;;24.00;2.83;;;7.60;99.90;;;;;;5031500;28;20044;-54
2023/12/22 06:18:23;;;;;;;16.45;2.90;;;7.60;99.90;;;;;;5030661;28;20489;-52
2023/12/22 06:20:49;;;;;;;23.77;2.92;;;7.70;99.90;;;;;;5033431;28;20592;-54
2023/12/22 06:23:15;;;;;;;19.48;2.83;;;7.70;99.90;;;;;;5033960;28;20057;-53
2023/12/22 06:25:41;;;;;;;20.35;3.38;;;7.70;99.90;;;;;;5031315;28;20049;-52
2023/12/22 06:28:06;;;;;;;20.17;2.88;;;7.80;99.90;;;;;;5033301;28;20096;-55
2023/12/22 06:30:32;;;;;;;21.70;3.08;;;7.70;99.90;;;;;;5033631;28;20120;-53
2023/12/22 06:32:58;;;;;;;19.13;2.38;;;7.70;99.90;;;;;;5032450;28;20067;-54
2023/12/22 06:35:25;;;;;;;26.10;3.97;;;7.70;99.90;;;;;;5032446;28;20042;-53
2023/12/22 06:37:51;;;;;;;21.52;2.95;;;7.70;99.90;;;;;;5033812;28;20065;-54
2023/12/22 06:40:20;;;;;;;21.85;2.50;;;7.70;99.90;;;;;;5029219;28;20030;-51
2023/12/22 06:42:46;;;;;;;21.75;2.40;;;7.60;99.90;;;;;;5030764;28;20087;-48
2023/12/22 06:45:11;;;;;;;24.92;3.55;;;7.80;99.90;;;;;;5033302;28;20033;-52
2023/12/22 06:47:37;;;;;;;23.33;4.60;;;7.70;99.90;;;;;;5033425;28;20053;-52
2023/12/22 06:50:03;;;;;;;18.85;2.30;;;7.70;99.90;;;;;;5033275;28;20049;-51
2023/12/22 06:52:30;;;;;;;17.88;2.47;;;7.70;99.90;;;;;;5033506;28;20044;-50
2023/12/22 06:54:56;;;;;;;16.52;2.85;;;7.70;99.90;;;;;;5032201;28;20041;-52
2023/12/22 06:57:22;;;;;;;17.63;2.63;;;7.60;99.90;;;;;;5032222;28;20050;-53
2023/12/22 06:59:49;;;;;;;21.77;2.58;;;7.60;99.90;;;;;;5033161;28;20043;-48
2023/12/22 07:02:15;;;;;;;11.57;2.30;;;7.50;99.90;;;;;;5033124;28;20294;-53
2023/12/22 07:05:09;;;;;;;13.75;2.25;;;7.60;99.90;;;;;;5032247;28;20037;-52
2023/12/22 07:07:37;;;;;;;19.63;1.77;;;7.50;99.90;;;;;;5033021;28;20049;-53
2023/12/22 07:10:04;;;;;;;15.55;2.35;;;7.60;99.90;;;;;;5032503;28;20048;-53
2023/12/22 07:12:29;;;;;;;16.35;2.42;;;7.50;99.90;;;;;;5032993;28;20037;-52
2023/12/22 07:14:55;;;;;;;12.20;1.65;;;7.50;99.90;;;;;;5033009;28;20046;-52
2023/12/22 07:17:21;;;;;;;13.20;2.03;;;7.60;99.90;;;;;;5033114;28;20041;-52
2023/12/22 07:19:47;;;;;;;8.93;2.10;;;7.40;99.90;;;;;;5032865;28;20033;-50
2023/12/22 07:22:12;;;;;;;10.45;2.10;;;7.50;99.90;;;;;;5029657;28;20038;-52
2023/12/22 07:24:38;;;;;;;21.88;2.83;;;7.40;99.90;;;;;;5029216;28;20052;-53
2023/12/22 07:27:05;;;;;;;15.73;2.45;;;7.40;99.90;;;;;;5031083;28;20037;-50
2023/12/22 07:29:31;;;;;;;16.65;2.10;;;7.40;99.90;;;;;;5031080;28;20034;-52
2023/12/22 07:31:56;;;;;;;23.13;2.45;;;7.50;99.90;;;;;;5032325;28;20037;-53
2023/12/22 07:34:22;;;;;;;13.80;1.85;;;7.20;99.90;;;;;;5032439;28;20040;-51
2023/12/22 07:36:48;;;;;;;18.85;2.47;;;7.30;99.90;;;;;;5032772;28;20041;-54
2023/12/22 07:39:14;;;;;;;20.25;2.78;;;7.40;99.90;;;;;;5031098;28;20135;-52
2023/12/22 07:41:40;;;;;;;23.60;2.78;;;7.20;99.90;;;;;;5030783;28;20084;-53
2023/12/22 07:44:06;;;;;;;20.63;2.50;;;7.00;99.90;;;;;;5032358;28;20119;-55
2023/12/22 07:46:31;;;;;;;20.10;2.60;;;7.40;99.90;;;;;;5032035;28;20060;-52
2023/12/22 07:48:57;;;;;;;27.25;4.28;;;7.20;99.90;;;;;;5031848;28;20096;-51
2023/12/22 07:51:23;;;;;;;15.27;2.42;;;7.30;99.90;;;;;;5032237;28;20032;-54
2023/12/22 07:53:49;;;;;;;18.60;2.05;;;7.20;99.90;;;;;;5047329;28;20069;-53
2023/12/22 07:56:15;;;;;;;13.57;2.50;;;7.10;99.90;;;;;;5031630;28;20088;-53
2023/12/22 07:58:41;;;;;;;20.73;2.90;;;7.20;99.90;;;;;;5031658;28;20041;-52
2023/12/22 08:01:06;;;;;;;15.88;1.83;;;7.10;99.90;;;;;;5032031;28;20041;-53
2023/12/22 08:03:33;;;;;;;25.13;2.33;;;7.00;99.90;;;;;;5032222;28;20116;-54
2023/12/22 08:05:59;;;;;;;16.88;2.55;;;7.10;99.90;;;;;;5030600;28;20092;-51
2023/12/22 08:08:24;;;;;;;17.85;1.95;;;7.10;99.90;;;;;;5031332;28;20045;-53
2023/12/22 08:10:50;;;;;;;17.48;2.65;;;7.20;99.90;;;;;;5029713;28;20041;-55
2023/12/22 08:13:17;;;;;;;14.93;2.47;;;7.30;99.90;;;;;;5031304;28;20055;-54
2023/12/22 08:15:43;;;;;;;14.77;2.45;;;7.40;99.90;;;;;;5032004;28;20095;-53
2023/12/22 08:18:09;;;;;;;15.65;2.13;;;7.10;99.90;;;;;;5032119;28;20469;-51
2023/12/22 08:20:35;;;;;;;9.63;2.28;;;7.40;99.90;;;;;;5029759;28;20041;-52
2023/12/22 08:23:00;;;;;;;15.20;1.52;;;7.40;99.90;;;;;;5028806;28;20072;-50
2023/12/22 08:25:26;;;;;;;11.75;2.50;;;7.40;99.90;;;;;;5025508;28;20045;-58
2023/12/22 08:27:52;;;;;;;15.18;2.08;;;7.30;99.90;;;;;;5021054;28;20045;-56
2023/12/22 08:30:17;;;;;;;15.27;2.05;;;7.20;99.90;;;;;;5023605;28;20041;-57
2023/12/22 08:32:43;;;;;;;19.35;2.03;;;7.10;99.90;;;;;;5020214;28;20099;-55
2023/12/22 08:35:09;;;;;;;11.48;1.83;;;7.00;99.90;;;;;;5023022;28;20079;-58
2023/12/22 08:37:34;;;;;;;14.88;1.85;;;7.00;99.90;;;;;;5023432;28;20041;-58
2023/12/22 08:40:00;;;;;;;17.08;1.73;;;7.20;99.90;;;;;;5022850;28;20034;-56
2023/12/22 08:42:28;;;;;;;17.48;1.63;;;6.80;99.90;;;;;;5022615;28;20041;-54
2023/12/22 08:44:53;;;;;;;12.07;1.83;;;7.10;99.90;;;;;;5022942;28;20056;-55
2023/12/22 08:47:19;;;;;;;11.77;1.92;;;6.80;99.90;;;;;;5023839;28;20046;-56
2023/12/22 08:49:45;;;;;;;19.55;2.08;;;6.80;99.90;;;;;;5023549;28;20072;-53
2023/12/22 08:52:10;;;;;;;22.90;3.45;;;6.70;99.90;;;;;;5022231;28;20040;-53
2023/12/22 08:54:36;;;;;;;18.13;2.40;;;7.40;99.90;;;;;;5021070;28;20030;-56
2023/12/22 08:57:02;;;;;;;10.63;1.90;;;7.00;99.90;;;;;;5022432;28;20445;-52
2023/12/22 08:59:28;;;;;;;17.27;1.88;;;7.00;99.90;;;;;;5022252;28;20891;-54
2023/12/22 09:01:54;;;;;;;13.75;1.75;;;7.10;99.90;;;;;;5022389;28;20048;-54
2023/12/22 09:04:22;;;;;;;21.40;2.40;;;7.20;99.90;;;;;;5021651;28;20036;-58
2023/12/22 09:06:49;;;;;;;18.90;2.42;;;6.90;99.90;;;;;;5022518;28;20037;-58
2023/12/22 09:09:14;;;;;;;11.45;1.30;;;6.60;99.90;;;;;;5022446;28;20049;-55
2023/12/22 09:11:40;;;;;;;15.40;1.50;;;6.80;99.90;;;;;;5021406;28;20033;-58
2023/12/22 09:14:09;;;;;;;11.02;1.77;;;7.60;99.90;;;;;;5021588;28;20048;-55
2023/12/22 09:16:35;;;;;;;14.80;1.92;;;6.70;99.90;;;;;;5022162;28;20095;-57
2023/12/22 09:19:01;;;;;;;13.15;1.85;;;7.30;99.90;;;;;;5022298;28;20404;-57
2023/12/22 09:21:27;;;;;;;14.45;1.45;;;6.90;99.90;;;;;;5023033;28;20045;-53
2023/12/22 09:23:53;;;;;;;13.20;1.77;;;7.00;99.90;;;;;;5023058;28;20505;-54
2023/12/22 09:26:19;;;;;;;5.50;1.20;;;6.80;99.90;;;;;;5021111;28;20448;-53
2023/12/22 09:28:45;;;;;;;19.55;2.40;;;6.50;99.90;;;;;;5021825;28;20527;-55
2023/12/22 09:31:12;;;;;;;15.50;2.15;;;7.20;99.90;;;;;;5023108;28;20370;-56
2023/12/22 09:33:39;;;;;;;12.65;1.25;;;6.80;99.90;;;;;;5021060;28;20511;-52
2023/12/22 09:36:05;;;;;;;10.52;1.55;;;7.20;99.90;;;;;;5022781;28;20099;-57
2023/12/22 09:38:31;;;;;;;11.45;1.75;;;7.20;99.90;;;;;;5021254;28;20485;-59
2023/12/22 09:40:58;;;;;;;8.45;2.03;;;6.90;99.90;;;;;;5020085;28;20092;-52
2023/12/22 09:43:24;;;;;;;13.20;1.50;;;6.80;99.90;;;;;;5019803;28;20046;-56
2023/12/22 09:45:50;;;;;;;7.65;1.20;;;6.40;99.90;;;;;;5021347;28;21224;-54
2023/12/22 09:48:27;;;;;;;7.43;1.52;;;6.80;99.90;;;;;;5021628;28;20520;-56
2023/12/22 09:50:54;;;;;;;10.77;1.40;;;7.20;99.90;;;;;;5023789;28;20041;-57
2023/12/22 09:53:20;;;;;;;7.72;0.90;;;6.80;99.90;;;;;;5026919;28;20124;-57
2023/12/22 09:55:47;;;;;;;7.22;0.90;;;6.90;99.90;;;;;;5025377;28;20123;-54
2023/12/22 09:58:14;;;;;;;6.07;0.70;;;6.90;99.90;;;;;;5026027;28;20068;-55
2023/12/22 10:00:40;;;;;;;4.97;0.85;;;6.70;99.90;;;;;;5024826;28;20037;-56
2023/12/22 10:03:07;;;;;;;6.03;0.80;;;6.70;99.90;;;;;;5022581;28;20091;-54
2023/12/22 10:05:33;;;;;;;3.88;0.73;;;7.10;99.90;;;;;;5024345;28;20034;-55
2023/12/22 10:08:00;;;;;;;7.28;1.27;;;6.80;99.90;;;;;;5025333;28;20045;-57
2023/12/22 10:10:29;;;;;;;5.53;0.95;;;7.00;99.90;;;;;;5024216;28;20125;-53
2023/12/22 10:12:55;;;;;;;3.65;0.50;;;7.00;99.90;;;;;;5024692;28;20029;-57
2023/12/22 10:15:25;;;;;;;3.60;0.60;;;6.50;99.90;;;;;;5025217;28;20037;-56
2023/12/22 10:17:53;;;;;;;2.63;0.50;;;6.40;99.90;;;;;;5023311;28;20037;-53
2023/12/22 10:20:19;;;;;;;3.53;0.50;;;6.60;99.90;;;;;;5023933;28;20060;-54
2023/12/22 10:22:46;;;;;;;5.35;0.77;;;6.90;99.90;;;;;;5025845;28;20034;-52
2023/12/22 10:25:15;;;;;;;5.68;0.80;;;6.80;99.90;;;;;;5025271;28;20037;-52
2023/12/22 10:27:42;;;;;;;3.78;0.50;;;7.20;99.90;;;;;;5026583;28;20040;-53
2023/12/22 10:30:09;;;;;;;1.70;0.50;;;7.00;99.90;;;;;;5025104;28;20057;-55
2023/12/22 10:32:42;;;;;;;2.67;0.60;;;6.80;99.90;;;;;;5026096;28;20038;-54
2023/12/22 10:35:08;;;;;;;4.13;0.52;;;6.80;99.90;;;;;;5025080;28;20103;-52
2023/12/22 10:37:34;;;;;;;3.70;0.70;;;6.60;99.90;;;;;;5023788;28;20037;-56
2023/12/22 10:40:00;;;;;;;1.90;0.35;;;7.10;99.90;;;;;;5024186;28;20513;-53
2023/12/22 10:42:26;;;;;;;3.45;0.50;;;7.20;99.90;;;;;;5022945;28;20037;-53
2023/12/22 10:44:53;;;;;;;2.17;0.40;;;6.90;99.90;;;;;;5023529;28;20081;-56
2023/12/22 10:47:21;;;;;;;2.08;0.43;;;6.40;99.90;;;;;;5021643;28;20057;-54
2023/12/22 10:49:46;;;;;;;3.42;0.65;;;7.10;99.90;;;;;;5023799;28;20361;-53
2023/12/22 10:52:20;;;;;;;1.30;0.40;;;7.30;99.90;;;;;;5023204;28;20106;-51
2023/12/22 10:54:46;;;;;;;2.92;0.60;;;7.20;99.90;;;;;;5021545;28;20035;-53
2023/12/22 10:57:12;;;;;;;1.88;0.30;;;6.50;99.90;;;;;;5025044;28;20029;-53
2023/12/22 10:59:45;;;;;;;4.03;0.60;;;6.80;99.90;;;;;;5022955;28;20042;-53
2023/12/22 11:02:18;;;;;;;3.05;0.50;;;7.10;99.90;;;;;;5023694;28;20072;-53
2023/12/22 11:05:01;;;;;;;3.05;0.50;;;6.60;99.90;;;;;;5024696;28;20021;-51
2023/12/22 11:07:28;;;;;;;2.90;0.55;;;6.90;99.90;;;;;;5024429;28;20480;-52
2023/12/22 11:09:57;;;;;;;3.05;0.68;;;7.40;99.90;;;;;;5024655;28;20167;-53
2023/12/22 11:12:26;;;;;;;4.80;0.63;;;7.40;99.90;;;;;;5022693;28;20144;-50
2023/12/22 11:14:53;;;;;;;4.85;0.65;;;6.60;99.90;;;;;;5023859;28;20678;-55
2023/12/22 11:17:22;;;;;;;2.28;0.50;;;7.40;99.90;;;;;;5023860;28;20038;-55
2023/12/22 11:19:50;;;;;;;4.35;0.50;;;7.40;99.90;;;;;;5025081;28;20041;-54
2023/12/22 11:22:18;;;;;;;4.38;0.70;;;7.40;99.90;;;;;;5025163;28;20053;-52
2023/12/22 11:24:47;;;;;;;5.20;0.90;;;7.50;99.90;;;;;;5024667;28;20046;-53
2023/12/22 11:27:16;;;;;;;5.65;0.80;;;7.20;99.90;;;;;;5024363;28;20048;-55
2023/12/22 11:29:42;;;;;;;4.32;0.60;;;7.40;99.90;;;;;;5022099;28;20045;-54
2023/12/22 11:32:10;;;;;;;5.00;0.77;;;6.90;99.90;;;;;;5022414;28;20033;-53
2023/12/22 11:34:38;;;;;;;4.60;0.57;;;7.20;99.90;;;;;;5021072;28;20038;-55
2023/12/22 11:37:04;;;;;;;7.10;0.57;;;6.90;99.90;;;;;;5021915;28;20040;-55
2023/12/22 11:39:30;;;;;;;2.53;0.40;;;7.40;99.90;;;;;;5021002;28;20053;-56
2023/12/22 11:41:57;;;;;;;4.78;1.15;;;7.60;99.90;;;;;;5021639;28;20577;-53
2023/12/22 11:44:23;;;;;;;7.15;0.55;;;7.10;99.90;;;;;;5021248;28;20029;-52
2023/12/22 11:46:49;;;;;;;2.42;0.40;;;7.20;99.90;;;;;;5020780;28;20034;-51
2023/12/22 11:49:14;;;;;;;2.83;1.00;;;7.10;99.90;;;;;;5017616;28;20061;-54
2023/12/22 11:51:40;;;;;;;5.28;0.52;;;7.90;99.90;;;;;;5021945;28;20112;-54
2023/12/22 11:54:48;;;;;;;5.10;1.33;;;7.20;99.90;;;;;;5021496;28;20072;-55
2023/12/22 11:57:35;;;;;;;5.10;0.43;;;7.40;99.90;;;;;;5020907;28;20284;-53
2023/12/22 12:00:05;;;;;;;4.63;0.70;;;7.20;99.90;;;;;;5022324;28;20128;-54
2023/12/22 12:02:32;;;;;;;1.20;0.40;;;7.30;99.90;;;;;;5020394;28;20041;-54
2023/12/22 12:05:02;;;;;;;3.47;0.45;;;7.70;99.90;;;;;;5022380;28;20034;-55
2023/12/22 12:07:45;;;;;;;4.57;0.55;;;8.00;99.90;;;;;;5016665;28;20984;-55
2023/12/22 12:10:34;;;;;;;3.08;0.50;;;7.30;99.90;;;;;;5018123;28;20037;-52
2023/12/22 12:13:09;;;;;;;4.55;0.82;;;7.90;99.90;;;;;;5019949;28;20038;-53
2023/12/22 12:15:36;;;;;;;7.35;1.52;;;7.30;99.90;;;;;;5021339;28;20910;-52
2023/12/22 12:18:02;;;;;;;14.88;1.02;;;7.90;99.90;;;;;;5021481;28;20473;-52
2023/12/22 12:20:28;;;;;;;4.15;0.50;;;7.90;99.90;;;;;;5020007;28;20030;-52
2023/12/22 12:22:54;;;;;;;7.38;0.63;;;7.90;99.90;;;;;;5019496;28;20505;-56
2023/12/22 12:25:26;;;;;;;4.55;1.10;;;7.20;99.90;;;;;;5016563;28;20069;-51
2023/12/22 12:28:11;;;;;;;5.57;0.60;;;7.40;99.90;;;;;;5022368;28;20037;-52
2023/12/22 12:30:38;;;;;;;5.43;1.48;;;7.90;99.90;;;;;;5028791;28;20172;-54
2023/12/22 12:33:12;;;;;;;4.78;0.70;;;7.40;99.90;;;;;;5031455;28;20068;-54
2023/12/22 12:35:39;;;;;;;3.75;0.60;;;7.40;99.90;;;;;;5030050;28;20041;-51
2023/12/22 12:38:05;;;;;;;4.50;0.60;;;7.30;99.90;;;;;;5030287;28;20072;-51
2023/12/22 12:40:35;;;;;;;7.68;0.90;;;8.00;99.90;;;;;;5031290;28;20083;-54
2023/12/22 12:43:02;;;;;;;4.15;0.63;;;8.00;99.90;;;;;;5029009;28;20043;-51
2023/12/22 12:45:28;;;;;;;5.65;1.17;;;7.70;99.90;;;;;;5031068;28;20029;-54
2023/12/22 12:48:03;;;;;;;8.65;1.63;;;8.00;99.90;;;;;;5029667;28;20079;-53